sensor_id;sensor_type;location;lat;lon;timestamp;P1;durP1;ratioP1;P2;durP2;ratioP2
20008;SDS011;10165;42.662;23.260;2022-09-13T00:02:12;4.73;;;3.00;;
20008;SDS011;10165;42.662;23.260;2022-09-13T00:04:39;3.80;;;2.93;;
20008;SDS011;10165;42.662;23.260;2022-09-13T00:07:06;4.53;;;2.83;;
20008;SDS011;10165;42.662;23.260;2022-09-13T00:09:32;4.67;;;3.13;;
20008;SDS011;10165;42.662;23.260;2022-09-13T00:11:59;4.83;;;2.93;;
20008;SDS011;10165;42.662;23.260;2022-09-13T00:14:26;9.97;;;3.10;;
20008;SDS011;10165;42.662;23.260;2022-09-13T00:16:52;9.73;;;2.70;;
20008;SDS011;10165;42.662;23.260;2022-09-13T00:19:19;4.07;;;2.87;;
20008;SDS011;10165;42.662;23.260;2022-09-13T00:21:45;5.30;;;3.07;;
20008;SDS011;10165;42.662;23.260;2022-09-13T00:24:12;4.87;;;3.40;;
20008;SDS011;10165;42.662;23.260;2022-09-13T00:26:39;5.07;;;3.03;;
20008;SDS011;10165;42.662;23.260;2022-09-13T00:29:05;3.80;;;2.60;;
20008;SDS011;10165;42.662;23.260;2022-09-13T00:31:32;3.37;;;2.63;;
20008;SDS011;10165;42.662;23.260;2022-09-13T00:33:59;3.77;;;3.10;;
20008;SDS011;10165;42.662;23.260;2022-09-13T00:36:26;3.97;;;2.93;;
20008;SDS011;10165;42.662;23.260;2022-09-13T00:38:52;3.43;;;3.07;;
20008;SDS011;10165;42.662;23.260;2022-09-13T00:41:19;5.23;;;2.83;;
20008;SDS011;10165;42.662;23.260;2022-09-13T00:44:00;5.17;;;3.20;;
20008;SDS011;10165;42.662;23.260;2022-09-13T00:49:26;11.80;;;3.33;;
20008;SDS011;10165;42.662;23.260;2022-09-13T00:52:05;5.70;;;3.23;;
20008;SDS011;10165;42.662;23.260;2022-09-13T00:54:37;5.10;;;2.70;;
20008;SDS011;10165;42.662;23.260;2022-09-13T00:57:07;5.80;;;2.97;;
20008;SDS011;10165;42.662;23.260;2022-09-13T00:59:39;3.53;;;2.50;;
20008;SDS011;10165;42.662;23.260;2022-09-13T01:02:10;3.07;;;2.77;;
20008;SDS011;10165;42.662;23.260;2022-09-13T01:04:37;4.03;;;3.13;;
20008;SDS011;10165;42.662;23.260;2022-09-13T01:07:05;3.47;;;2.53;;
20008;SDS011;10165;42.662;23.260;2022-09-13T01:09:34;7.83;;;2.73;;
20008;SDS011;10165;42.662;23.260;2022-09-13T01:12:07;3.27;;;2.80;;
20008;SDS011;10165;42.662;23.260;2022-09-13T01:14:35;6.47;;;3.60;;
20008;SDS011;10165;42.662;23.260;2022-09-13T01:17:02;3.73;;;2.90;;
20008;SDS011;10165;42.662;23.260;2022-09-13T01:19:29;6.00;;;3.07;;
20008;SDS011;10165;42.662;23.260;2022-09-13T01:22:04;4.40;;;2.87;;
20008;SDS011;10165;42.662;23.260;2022-09-13T01:31:18;3.27;;;2.97;;
20008;SDS011;10165;42.662;23.260;2022-09-13T01:39:21;3.57;;;2.70;;
20008;SDS011;10165;42.662;23.260;2022-09-13T01:42:26;3.27;;;2.90;;
20008;SDS011;10165;42.662;23.260;2022-09-13T01:45:19;4.07;;;2.60;;
20008;SDS011;10165;42.662;23.260;2022-09-13T01:55:50;5.40;;;2.77;;
20008;SDS011;10165;42.662;23.260;2022-09-13T02:01:15;3.30;;;2.83;;
20008;SDS011;10165;42.662;23.260;2022-09-13T02:04:03;3.17;;;2.87;;
20008;SDS011;10165;42.662;23.260;2022-09-13T02:06:36;3.97;;;3.20;;
20008;SDS011;10165;42.662;23.260;2022-09-13T02:09:21;3.67;;;2.93;;
20008;SDS011;10165;42.662;23.260;2022-09-13T02:11:53;3.90;;;2.83;;
20008;SDS011;10165;42.662;23.260;2022-09-13T02:14:27;3.40;;;3.03;;
20008;SDS011;10165;42.662;23.260;2022-09-13T02:17:06;2.70;;;2.50;;
20008;SDS011;10165;42.662;23.260;2022-09-13T02:20:02;3.27;;;2.77;;
20008;SDS011;10165;42.662;23.260;2022-09-13T02:22:35;5.17;;;2.73;;
20008;SDS011;10165;42.662;23.260;2022-09-13T02:25:09;4.37;;;2.57;;
20008;SDS011;10165;42.662;23.260;2022-09-13T02:27:39;7.10;;;2.97;;
20008;SDS011;10165;42.662;23.260;2022-09-13T02:30:09;4.97;;;2.73;;
20008;SDS011;10165;42.662;23.260;2022-09-13T02:32:41;4.00;;;2.83;;
20008;SDS011;10165;42.662;23.260;2022-09-13T02:38:30;3.33;;;2.80;;
20008;SDS011;10165;42.662;23.260;2022-09-13T02:40:48;6.63;;;2.37;;
20008;SDS011;10165;42.662;23.260;2022-09-13T02:43:23;6.33;;;2.80;;
20008;SDS011;10165;42.662;23.260;2022-09-13T02:51:49;2.87;;;2.23;;
20008;SDS011;10165;42.662;23.260;2022-09-13T02:54:30;4.27;;;2.30;;
20008;SDS011;10165;42.662;23.260;2022-09-13T02:59:36;2.23;;;2.03;;
20008;SDS011;10165;42.662;23.260;2022-09-13T03:04:34;5.23;;;2.60;;
20008;SDS011;10165;42.662;23.260;2022-09-13T03:07:01;5.47;;;2.77;;
20008;SDS011;10165;42.662;23.260;2022-09-13T03:09:31;3.53;;;2.43;;
20008;SDS011;10165;42.662;23.260;2022-09-13T03:12:06;3.67;;;2.63;;
20008;SDS011;10165;42.662;23.260;2022-09-13T03:31:37;2.67;;;2.30;;
20008;SDS011;10165;42.662;23.260;2022-09-13T03:34:08;4.70;;;2.47;;
20008;SDS011;10165;42.662;23.260;2022-09-13T03:36:46;2.70;;;2.40;;
20008;SDS011;10165;42.662;23.260;2022-09-13T03:39:26;3.70;;;2.80;;
20008;SDS011;10165;42.662;23.260;2022-09-13T03:42:05;2.60;;;2.20;;
20008;SDS011;10165;42.662;23.260;2022-09-13T03:44:41;3.40;;;2.47;;
20008;SDS011;10165;42.662;23.260;2022-09-13T03:47:12;2.90;;;2.50;;
20008;SDS011;10165;42.662;23.260;2022-09-13T03:49:41;3.47;;;2.93;;
20008;SDS011;10165;42.662;23.260;2022-09-13T03:52:08;4.00;;;2.60;;
20008;SDS011;10165;42.662;23.260;2022-09-13T03:54:36;2.70;;;2.17;;
20008;SDS011;10165;42.662;23.260;2022-09-13T03:57:17;5.40;;;2.27;;
20008;SDS011;10165;42.662;23.260;2022-09-13T03:59:50;4.03;;;2.30;;
20008;SDS011;10165;42.662;23.260;2022-09-13T04:02:20;3.17;;;2.87;;
20008;SDS011;10165;42.662;23.260;2022-09-13T04:04:48;2.43;;;2.17;;
20008;SDS011;10165;42.662;23.260;2022-09-13T04:07:16;4.83;;;2.13;;
20008;SDS011;10165;42.662;23.260;2022-09-13T04:09:47;2.53;;;2.33;;
20008;SDS011;10165;42.662;23.260;2022-09-13T04:12:14;3.37;;;1.87;;
20008;SDS011;10165;42.662;23.260;2022-09-13T04:14:42;2.50;;;2.30;;
20008;SDS011;10165;42.662;23.260;2022-09-13T04:17:09;4.50;;;2.73;;
20008;SDS011;10165;42.662;23.260;2022-09-13T04:19:36;1.87;;;1.77;;
20008;SDS011;10165;42.662;23.260;2022-09-13T04:22:03;2.30;;;2.10;;
20008;SDS011;10165;42.662;23.260;2022-09-13T04:24:30;3.07;;;2.30;;
20008;SDS011;10165;42.662;23.260;2022-09-13T04:26:57;2.20;;;1.97;;
20008;SDS011;10165;42.662;23.260;2022-09-13T04:29:24;5.93;;;2.30;;
20008;SDS011;10165;42.662;23.260;2022-09-13T04:31:52;2.70;;;2.50;;
20008;SDS011;10165;42.662;23.260;2022-09-13T04:34:20;2.47;;;2.27;;
20008;SDS011;10165;42.662;23.260;2022-09-13T04:36:50;4.27;;;2.40;;
20008;SDS011;10165;42.662;23.260;2022-09-13T04:39:18;3.30;;;2.53;;
20008;SDS011;10165;42.662;23.260;2022-09-13T04:41:46;5.23;;;2.30;;
20008;SDS011;10165;42.662;23.260;2022-09-13T04:44:15;2.53;;;2.13;;
20008;SDS011;10165;42.662;23.260;2022-09-13T04:46:43;2.70;;;2.37;;
20008;SDS011;10165;42.662;23.260;2022-09-13T04:49:13;3.20;;;2.10;;
20008;SDS011;10165;42.662;23.260;2022-09-13T04:51:41;3.13;;;2.37;;
20008;SDS011;10165;42.662;23.260;2022-09-13T04:54:09;3.23;;;2.27;;
20008;SDS011;10165;42.662;23.260;2022-09-13T04:56:40;3.00;;;2.30;;
20008;SDS011;10165;42.662;23.260;2022-09-13T04:59:08;2.50;;;2.20;;
20008;SDS011;10165;42.662;23.260;2022-09-13T05:01:36;2.23;;;2.03;;
20008;SDS011;10165;42.662;23.260;2022-09-13T05:04:04;2.90;;;2.20;;
20008;SDS011;10165;42.662;23.260;2022-09-13T05:06:31;2.97;;;1.93;;
20008;SDS011;10165;42.662;23.260;2022-09-13T05:08:59;3.30;;;2.47;;
20008;SDS011;10165;42.662;23.260;2022-09-13T05:11:26;3.00;;;1.73;;
20008;SDS011;10165;42.662;23.260;2022-09-13T05:13:57;3.87;;;2.57;;
20008;SDS011;10165;42.662;23.260;2022-09-13T05:16:29;3.17;;;2.13;;
20008;SDS011;10165;42.662;23.260;2022-09-13T05:18:58;4.50;;;2.30;;
20008;SDS011;10165;42.662;23.260;2022-09-13T05:21:25;3.10;;;2.30;;
20008;SDS011;10165;42.662;23.260;2022-09-13T05:23:53;3.00;;;2.23;;
20008;SDS011;10165;42.662;23.260;2022-09-13T05:26:21;1.90;;;1.80;;
20008;SDS011;10165;42.662;23.260;2022-09-13T05:28:50;2.53;;;2.10;;
20008;SDS011;10165;42.662;23.260;2022-09-13T05:31:27;4.20;;;2.80;;
20008;SDS011;10165;42.662;23.260;2022-09-13T05:34:00;2.70;;;2.27;;
20008;SDS011;10165;42.662;23.260;2022-09-13T05:36:28;5.33;;;2.77;;
20008;SDS011;10165;42.662;23.260;2022-09-13T05:38:55;4.63;;;2.37;;
20008;SDS011;10165;42.662;23.260;2022-09-13T05:41:43;9.07;;;2.70;;
20008;SDS011;10165;42.662;23.260;2022-09-13T05:44:10;7.40;;;2.83;;
20008;SDS011;10165;42.662;23.260;2022-09-13T05:46:39;4.47;;;3.43;;
20008;SDS011;10165;42.662;23.260;2022-09-13T05:49:06;3.80;;;2.67;;
20008;SDS011;10165;42.662;23.260;2022-09-13T05:51:32;3.80;;;2.77;;
20008;SDS011;10165;42.662;23.260;2022-09-13T05:53:59;3.87;;;2.37;;
20008;SDS011;10165;42.662;23.260;2022-09-13T05:56:27;3.80;;;2.63;;
20008;SDS011;10165;42.662;23.260;2022-09-13T05:58:55;8.07;;;2.80;;
20008;SDS011;10165;42.662;23.260;2022-09-13T06:01:26;9.43;;;3.00;;
20008;SDS011;10165;42.662;23.260;2022-09-13T06:03:57;3.93;;;2.47;;
20008;SDS011;10165;42.662;23.260;2022-09-13T06:06:24;3.20;;;2.67;;
20008;SDS011;10165;42.662;23.260;2022-09-13T06:08:52;2.73;;;2.20;;
20008;SDS011;10165;42.662;23.260;2022-09-13T06:11:19;3.63;;;2.30;;
20008;SDS011;10165;42.662;23.260;2022-09-13T06:13:47;2.90;;;2.00;;
20008;SDS011;10165;42.662;23.260;2022-09-13T06:16:14;5.30;;;2.27;;
20008;SDS011;10165;42.662;23.260;2022-09-13T06:18:42;4.83;;;2.30;;
20008;SDS011;10165;42.662;23.260;2022-09-13T06:21:13;4.03;;;2.23;;
20008;SDS011;10165;42.662;23.260;2022-09-13T06:23:46;4.73;;;2.30;;
20008;SDS011;10165;42.662;23.260;2022-09-13T06:26:14;3.67;;;2.23;;
20008;SDS011;10165;42.662;23.260;2022-09-13T06:28:45;3.03;;;1.87;;
20008;SDS011;10165;42.662;23.260;2022-09-13T06:31:14;2.20;;;1.87;;
20008;SDS011;10165;42.662;23.260;2022-09-13T06:33:43;2.10;;;1.87;;
20008;SDS011;10165;42.662;23.260;2022-09-13T06:36:11;3.80;;;2.37;;
20008;SDS011;10165;42.662;23.260;2022-09-13T06:38:40;3.70;;;2.10;;
20008;SDS011;10165;42.662;23.260;2022-09-13T06:41:11;5.13;;;2.40;;
20008;SDS011;10165;42.662;23.260;2022-09-13T06:43:39;3.90;;;2.37;;
20008;SDS011;10165;42.662;23.260;2022-09-13T06:48:36;2.83;;;2.50;;
20008;SDS011;10165;42.662;23.260;2022-09-13T06:51:05;1.93;;;1.83;;
20008;SDS011;10165;42.662;23.260;2022-09-13T06:53:34;4.13;;;1.90;;
20008;SDS011;10165;42.662;23.260;2022-09-13T06:56:03;1.70;;;1.60;;
20008;SDS011;10165;42.662;23.260;2022-09-13T06:58:38;2.30;;;2.00;;
20008;SDS011;10165;42.662;23.260;2022-09-13T07:01:07;4.10;;;2.17;;
20008;SDS011;10165;42.662;23.260;2022-09-13T07:03:38;4.00;;;2.00;;
20008;SDS011;10165;42.662;23.260;2022-09-13T07:06:14;5.13;;;2.00;;
20008;SDS011;10165;42.662;23.260;2022-09-13T07:08:47;1.73;;;1.53;;
20008;SDS011;10165;42.662;23.260;2022-09-13T07:11:16;2.07;;;1.87;;
20008;SDS011;10165;42.662;23.260;2022-09-13T07:13:47;2.23;;;1.60;;
20008;SDS011;10165;42.662;23.260;2022-09-13T07:16:16;2.43;;;2.17;;
20008;SDS011;10165;42.662;23.260;2022-09-13T07:18:44;2.20;;;2.00;;
20008;SDS011;10165;42.662;23.260;2022-09-13T07:21:11;4.30;;;1.93;;
20008;SDS011;10165;42.662;23.260;2022-09-13T07:23:38;2.17;;;1.97;;
20008;SDS011;10165;42.662;23.260;2022-09-13T07:26:05;3.43;;;2.07;;
20008;SDS011;10165;42.662;23.260;2022-09-13T07:28:34;2.20;;;1.70;;
20008;SDS011;10165;42.662;23.260;2022-09-13T07:31:03;2.93;;;2.03;;
20008;SDS011;10165;42.662;23.260;2022-09-13T07:33:40;2.60;;;1.87;;
20008;SDS011;10165;42.662;23.260;2022-09-13T07:36:09;1.60;;;1.50;;
20008;SDS011;10165;42.662;23.260;2022-09-13T07:38:38;2.87;;;1.90;;
20008;SDS011;10165;42.662;23.260;2022-09-13T07:41:06;7.57;;;1.93;;
20008;SDS011;10165;42.662;23.260;2022-09-13T07:43:36;4.20;;;1.80;;
20008;SDS011;10165;42.662;23.260;2022-09-13T07:46:04;5.43;;;2.20;;
20008;SDS011;10165;42.662;23.260;2022-09-13T07:48:39;2.10;;;1.90;;
20008;SDS011;10165;42.662;23.260;2022-09-13T07:51:08;2.27;;;2.07;;
20008;SDS011;10165;42.662;23.260;2022-09-13T07:53:37;2.23;;;1.97;;
20008;SDS011;10165;42.662;23.260;2022-09-13T07:56:06;3.93;;;2.00;;
20008;SDS011;10165;42.662;23.260;2022-09-13T07:58:35;2.60;;;2.23;;
20008;SDS011;10165;42.662;23.260;2022-09-13T08:01:07;1.87;;;1.63;;
20008;SDS011;10165;42.662;23.260;2022-09-13T08:03:36;2.10;;;1.90;;
20008;SDS011;10165;42.662;23.260;2022-09-13T08:06:04;2.20;;;1.97;;
20008;SDS011;10165;42.662;23.260;2022-09-13T08:08:32;2.20;;;2.00;;
20008;SDS011;10165;42.662;23.260;2022-09-13T08:10:59;2.43;;;1.97;;
20008;SDS011;10165;42.662;23.260;2022-09-13T08:13:27;1.87;;;1.63;;
20008;SDS011;10165;42.662;23.260;2022-09-13T08:15:54;2.17;;;1.80;;
20008;SDS011;10165;42.662;23.260;2022-09-13T08:18:21;4.97;;;1.60;;
20008;SDS011;10165;42.662;23.260;2022-09-13T08:20:48;1.90;;;1.60;;
20008;SDS011;10165;42.662;23.260;2022-09-13T08:23:14;1.67;;;1.50;;
20008;SDS011;10165;42.662;23.260;2022-09-13T08:25:41;1.57;;;1.47;;
20008;SDS011;10165;42.662;23.260;2022-09-13T08:28:09;1.97;;;1.80;;
20008;SDS011;10165;42.662;23.260;2022-09-13T08:30:43;2.20;;;1.67;;
20008;SDS011;10165;42.662;23.260;2022-09-13T08:33:10;2.83;;;1.60;;
20008;SDS011;10165;42.662;23.260;2022-09-13T08:35:37;2.07;;;1.87;;
20008;SDS011;10165;42.662;23.260;2022-09-13T08:38:05;2.00;;;1.77;;
20008;SDS011;10165;42.662;23.260;2022-09-13T08:40:37;1.87;;;1.63;;
20008;SDS011;10165;42.662;23.260;2022-09-13T08:45:53;1.60;;;1.50;;
20008;SDS011;10165;42.662;23.260;2022-09-13T08:48:40;2.20;;;1.53;;
20008;SDS011;10165;42.662;23.260;2022-09-13T08:51:22;2.97;;;1.70;;
20008;SDS011;10165;42.662;23.260;2022-09-13T08:54:09;2.70;;;1.80;;
20008;SDS011;10165;42.662;23.260;2022-09-13T08:56:40;1.73;;;1.60;;
20008;SDS011;10165;42.662;23.260;2022-09-13T08:59:16;1.50;;;1.40;;
20008;SDS011;10165;42.662;23.260;2022-09-13T09:07:36;1.40;;;1.30;;
20008;SDS011;10165;42.662;23.260;2022-09-13T09:10:18;6.73;;;1.90;;
20008;SDS011;10165;42.662;23.260;2022-09-13T09:12:50;1.80;;;1.27;;
20008;SDS011;10165;42.662;23.260;2022-09-13T09:25:54;1.50;;;1.40;;
20008;SDS011;10165;42.662;23.260;2022-09-13T09:28:23;1.70;;;1.60;;
20008;SDS011;10165;42.662;23.260;2022-09-13T09:33:39;1.80;;;1.57;;
20008;SDS011;10165;42.662;23.260;2022-09-13T09:39:10;2.00;;;1.80;;
20008;SDS011;10165;42.662;23.260;2022-09-13T09:41:39;5.63;;;1.67;;
20008;SDS011;10165;42.662;23.260;2022-09-13T09:44:19;5.70;;;1.50;;
20008;SDS011;10165;42.662;23.260;2022-09-13T09:46:58;1.37;;;1.27;;
20008;SDS011;10165;42.662;23.260;2022-09-13T09:52:30;2.80;;;1.63;;
20008;SDS011;10165;42.662;23.260;2022-09-13T09:55:32;1.87;;;1.57;;
20008;SDS011;10165;42.662;23.260;2022-09-13T09:58:08;1.47;;;1.37;;
20008;SDS011;10165;42.662;23.260;2022-09-13T10:00:37;1.60;;;1.50;;
20008;SDS011;10165;42.662;23.260;2022-09-13T10:03:26;2.20;;;1.57;;
20008;SDS011;10165;42.662;23.260;2022-09-13T10:08:35;3.63;;;1.53;;
20008;SDS011;10165;42.662;23.260;2022-09-13T10:11:03;1.90;;;1.60;;
20008;SDS011;10165;42.662;23.260;2022-09-13T10:13:32;2.67;;;2.00;;
20008;SDS011;10165;42.662;23.260;2022-09-13T10:16:00;1.47;;;1.37;;
20008;SDS011;10165;42.662;23.260;2022-09-13T10:18:29;1.97;;;1.40;;
20008;SDS011;10165;42.662;23.260;2022-09-13T10:23:42;2.70;;;1.87;;
20008;SDS011;10165;42.662;23.260;2022-09-13T10:31:33;1.57;;;1.47;;
20008;SDS011;10165;42.662;23.260;2022-09-13T10:34:10;3.53;;;1.87;;
20008;SDS011;10165;42.662;23.260;2022-09-13T10:36:44;1.90;;;1.77;;
20008;SDS011;10165;42.662;23.260;2022-09-13T10:39:22;4.30;;;1.97;;
20008;SDS011;10165;42.662;23.260;2022-09-13T10:41:55;2.03;;;1.40;;
20008;SDS011;10165;42.662;23.260;2022-09-13T10:46:53;2.97;;;2.20;;
20008;SDS011;10165;42.662;23.260;2022-09-13T10:49:44;2.33;;;1.73;;
20008;SDS011;10165;42.662;23.260;2022-09-13T10:57:49;2.63;;;1.53;;
20008;SDS011;10165;42.662;23.260;2022-09-13T11:00:36;1.80;;;1.70;;
20008;SDS011;10165;42.662;23.260;2022-09-13T11:11:39;2.27;;;1.60;;
20008;SDS011;10165;42.662;23.260;2022-09-13T11:14:24;1.70;;;1.60;;
20008;SDS011;10165;42.662;23.260;2022-09-13T11:17:03;3.27;;;1.73;;
20008;SDS011;10165;42.662;23.260;2022-09-13T11:34:29;1.70;;;1.60;;
20008;SDS011;10165;42.662;23.260;2022-09-13T11:40:31;2.47;;;2.10;;
20008;SDS011;10165;42.662;23.260;2022-09-13T11:52:07;2.10;;;1.70;;
20008;SDS011;10165;42.662;23.260;2022-09-13T11:57:24;1.60;;;1.50;;
20008;SDS011;10165;42.662;23.260;2022-09-13T11:59:56;4.63;;;1.53;;
20008;SDS011;10165;42.662;23.260;2022-09-13T12:02:36;1.57;;;1.30;;
20008;SDS011;10165;42.662;23.260;2022-09-13T12:05:19;1.47;;;1.37;;
20008;SDS011;10165;42.662;23.260;2022-09-13T12:10:42;2.97;;;2.00;;
20008;SDS011;10165;42.662;23.260;2022-09-13T12:16:27;1.60;;;1.50;;
20008;SDS011;10165;42.662;23.260;2022-09-13T12:19:04;2.97;;;1.60;;
20008;SDS011;10165;42.662;23.260;2022-09-13T12:21:39;1.93;;;1.53;;
20008;SDS011;10165;42.662;23.260;2022-09-13T12:27:12;2.00;;;1.73;;
20008;SDS011;10165;42.662;23.260;2022-09-13T12:32:40;1.70;;;1.40;;
20008;SDS011;10165;42.662;23.260;2022-09-13T12:43:15;1.57;;;1.47;;
20008;SDS011;10165;42.662;23.260;2022-09-13T13:01:09;1.93;;;1.80;;
20008;SDS011;10165;42.662;23.260;2022-09-13T13:03:52;1.50;;;1.40;;
20008;SDS011;10165;42.662;23.260;2022-09-13T13:09:00;1.73;;;1.47;;
20008;SDS011;10165;42.662;23.260;2022-09-13T13:11:39;1.83;;;1.73;;
20008;SDS011;10165;42.662;23.260;2022-09-13T13:14:25;1.50;;;1.40;;
20008;SDS011;10165;42.662;23.260;2022-09-13T13:17:32;3.30;;;1.77;;
20008;SDS011;10165;42.662;23.260;2022-09-13T13:19:59;1.40;;;1.30;;
20008;SDS011;10165;42.662;23.260;2022-09-13T13:27:56;3.10;;;1.77;;
20008;SDS011;10165;42.662;23.260;2022-09-13T13:33:26;1.60;;;1.50;;
20008;SDS011;10165;42.662;23.260;2022-09-13T13:35:54;1.83;;;1.70;;
20008;SDS011;10165;42.662;23.260;2022-09-13T13:40:53;1.87;;;1.70;;
20008;SDS011;10165;42.662;23.260;2022-09-13T13:43:37;2.30;;;1.60;;
20008;SDS011;10165;42.662;23.260;2022-09-13T13:48:40;2.00;;;1.80;;
20008;SDS011;10165;42.662;23.260;2022-09-13T13:53:37;7.40;;;1.97;;
20008;SDS011;10165;42.662;23.260;2022-09-13T13:56:21;3.03;;;2.03;;
20008;SDS011;10165;42.662;23.260;2022-09-13T13:58:54;2.00;;;1.80;;
20008;SDS011;10165;42.662;23.260;2022-09-13T14:01:27;4.43;;;1.90;;
20008;SDS011;10165;42.662;23.260;2022-09-13T14:06:30;2.00;;;1.90;;
20008;SDS011;10165;42.662;23.260;2022-09-13T14:14:40;3.53;;;1.90;;
20008;SDS011;10165;42.662;23.260;2022-09-13T14:24:43;2.43;;;2.17;;
20008;SDS011;10165;42.662;23.260;2022-09-13T14:27:18;2.10;;;1.90;;
20008;SDS011;10165;42.662;23.260;2022-09-13T14:29:49;2.00;;;1.80;;
20008;SDS011;10165;42.662;23.260;2022-09-13T14:32:19;3.50;;;2.00;;
20008;SDS011;10165;42.662;23.260;2022-09-13T14:34:52;8.93;;;2.23;;
20008;SDS011;10165;42.662;23.260;2022-09-13T14:37:28;2.23;;;2.00;;
20008;SDS011;10165;42.662;23.260;2022-09-13T14:42:46;2.33;;;2.03;;
20008;SDS011;10165;42.662;23.260;2022-09-13T14:45:15;2.20;;;2.00;;
20008;SDS011;10165;42.662;23.260;2022-09-13T14:50:36;2.07;;;1.87;;
20008;SDS011;10165;42.662;23.260;2022-09-13T14:53:09;1.80;;;1.70;;
20008;SDS011;10165;42.662;23.260;2022-09-13T14:55:48;2.20;;;1.83;;
20008;SDS011;10165;42.662;23.260;2022-09-13T15:01:09;2.10;;;1.87;;
20008;SDS011;10165;42.662;23.260;2022-09-13T15:03:40;2.03;;;1.60;;
20008;SDS011;10165;42.662;23.260;2022-09-13T15:06:18;1.87;;;1.77;;
20008;SDS011;10165;42.662;23.260;2022-09-13T15:08:51;2.07;;;1.90;;
20008;SDS011;10165;42.662;23.260;2022-09-13T15:11:32;3.10;;;1.80;;
20008;SDS011;10165;42.662;23.260;2022-09-13T15:19:34;2.10;;;1.90;;
20008;SDS011;10165;42.662;23.260;2022-09-13T15:22:13;3.17;;;2.50;;
20008;SDS011;10165;42.662;23.260;2022-09-13T15:24:44;2.00;;;1.80;;
20008;SDS011;10165;42.662;23.260;2022-09-13T15:30:25;2.43;;;1.80;;
20008;SDS011;10165;42.662;23.260;2022-09-13T15:35:38;2.00;;;1.70;;
20008;SDS011;10165;42.662;23.260;2022-09-13T15:38:14;2.40;;;2.20;;
20008;SDS011;10165;42.662;23.260;2022-09-13T15:41:17;2.27;;;1.90;;
20008;SDS011;10165;42.662;23.260;2022-09-13T15:43:46;2.47;;;2.03;;
20008;SDS011;10165;42.662;23.260;2022-09-13T15:46:14;2.40;;;2.20;;
20008;SDS011;10165;42.662;23.260;2022-09-13T15:48:49;2.30;;;2.10;;
20008;SDS011;10165;42.662;23.260;2022-09-13T15:51:18;2.30;;;2.10;;
20008;SDS011;10165;42.662;23.260;2022-09-13T15:53:46;3.20;;;1.90;;
20008;SDS011;10165;42.662;23.260;2022-09-13T15:56:15;5.97;;;2.30;;
20008;SDS011;10165;42.662;23.260;2022-09-13T15:58:53;3.07;;;2.07;;
20008;SDS011;10165;42.662;23.260;2022-09-13T16:01:19;4.43;;;2.47;;
20008;SDS011;10165;42.662;23.260;2022-09-13T16:03:46;2.13;;;2.03;;
20008;SDS011;10165;42.662;23.260;2022-09-13T16:06:13;3.00;;;2.40;;
20008;SDS011;10165;42.662;23.260;2022-09-13T16:08:40;2.50;;;2.30;;
20008;SDS011;10165;42.662;23.260;2022-09-13T16:11:06;3.57;;;2.30;;
20008;SDS011;10165;42.662;23.260;2022-09-13T16:13:33;2.63;;;2.23;;
20008;SDS011;10165;42.662;23.260;2022-09-13T16:16:01;2.47;;;2.27;;
20008;SDS011;10165;42.662;23.260;2022-09-13T16:18:30;3.50;;;2.97;;
20008;SDS011;10165;42.662;23.260;2022-09-13T16:20:58;3.30;;;2.93;;
20008;SDS011;10165;42.662;23.260;2022-09-13T16:23:25;3.60;;;2.90;;
20008;SDS011;10165;42.662;23.260;2022-09-13T16:25:54;3.93;;;2.90;;
20008;SDS011;10165;42.662;23.260;2022-09-13T16:28:23;2.73;;;2.47;;
20008;SDS011;10165;42.662;23.260;2022-09-13T16:30:50;3.97;;;2.67;;
20008;SDS011;10165;42.662;23.260;2022-09-13T16:33:18;2.93;;;2.17;;
20008;SDS011;10165;42.662;23.260;2022-09-13T16:35:45;3.53;;;2.23;;
20008;SDS011;10165;42.662;23.260;2022-09-13T16:38:13;2.17;;;2.00;;
20008;SDS011;10165;42.662;23.260;2022-09-13T16:40:40;2.03;;;1.93;;
20008;SDS011;10165;42.662;23.260;2022-09-13T16:43:08;2.40;;;2.20;;
20008;SDS011;10165;42.662;23.260;2022-09-13T16:45:37;2.93;;;2.33;;
20008;SDS011;10165;42.662;23.260;2022-09-13T16:48:05;2.33;;;2.13;;
20008;SDS011;10165;42.662;23.260;2022-09-13T16:50:32;2.80;;;2.30;;
20008;SDS011;10165;42.662;23.260;2022-09-13T16:53:00;3.20;;;2.90;;
20008;SDS011;10165;42.662;23.260;2022-09-13T16:55:27;2.43;;;2.23;;
20008;SDS011;10165;42.662;23.260;2022-09-13T16:57:54;3.50;;;2.83;;
20008;SDS011;10165;42.662;23.260;2022-09-13T17:00:21;4.47;;;3.03;;
20008;SDS011;10165;42.662;23.260;2022-09-13T17:02:49;4.80;;;2.80;;
20008;SDS011;10165;42.662;23.260;2022-09-13T17:05:17;4.83;;;3.00;;
20008;SDS011;10165;42.662;23.260;2022-09-13T17:07:43;4.10;;;2.80;;
20008;SDS011;10165;42.662;23.260;2022-09-13T17:10:10;3.20;;;2.77;;
20008;SDS011;10165;42.662;23.260;2022-09-13T17:12:38;3.57;;;2.80;;
20008;SDS011;10165;42.662;23.260;2022-09-13T17:15:05;2.37;;;2.17;;
20008;SDS011;10165;42.662;23.260;2022-09-13T17:17:33;10.20;;;2.80;;
20008;SDS011;10165;42.662;23.260;2022-09-13T17:20:03;4.10;;;2.70;;
20008;SDS011;10165;42.662;23.260;2022-09-13T17:22:33;2.57;;;2.37;;
20008;SDS011;10165;42.662;23.260;2022-09-13T17:25:00;5.63;;;2.70;;
20008;SDS011;10165;42.662;23.260;2022-09-13T17:27:27;4.53;;;3.10;;
20008;SDS011;10165;42.662;23.260;2022-09-13T17:29:54;2.73;;;2.43;;
20008;SDS011;10165;42.662;23.260;2022-09-13T17:32:21;4.53;;;3.00;;
20008;SDS011;10165;42.662;23.260;2022-09-13T17:34:47;3.00;;;2.70;;
20008;SDS011;10165;42.662;23.260;2022-09-13T17:37:14;2.70;;;2.50;;
20008;SDS011;10165;42.662;23.260;2022-09-13T17:39:41;3.53;;;2.50;;
20008;SDS011;10165;42.662;23.260;2022-09-13T17:42:08;2.90;;;2.50;;
20008;SDS011;10165;42.662;23.260;2022-09-13T17:44:36;2.97;;;2.43;;
20008;SDS011;10165;42.662;23.260;2022-09-13T17:47:02;2.80;;;2.60;;
20008;SDS011;10165;42.662;23.260;2022-09-13T17:49:31;3.43;;;2.70;;
20008;SDS011;10165;42.662;23.260;2022-09-13T17:51:59;3.67;;;2.50;;
20008;SDS011;10165;42.662;23.260;2022-09-13T17:54:27;3.13;;;2.30;;
20008;SDS011;10165;42.662;23.260;2022-09-13T17:56:54;2.90;;;2.60;;
20008;SDS011;10165;42.662;23.260;2022-09-13T17:59:21;2.80;;;2.60;;
20008;SDS011;10165;42.662;23.260;2022-09-13T18:01:50;3.87;;;2.80;;
20008;SDS011;10165;42.662;23.260;2022-09-13T18:04:19;2.80;;;2.60;;
20008;SDS011;10165;42.662;23.260;2022-09-13T18:06:49;2.63;;;2.30;;
20008;SDS011;10165;42.662;23.260;2022-09-13T18:09:17;2.83;;;2.30;;
20008;SDS011;10165;42.662;23.260;2022-09-13T18:11:45;2.83;;;2.63;;
20008;SDS011;10165;42.662;23.260;2022-09-13T18:14:12;2.87;;;2.57;;
20008;SDS011;10165;42.662;23.260;2022-09-13T18:16:41;2.70;;;2.50;;
20008;SDS011;10165;42.662;23.260;2022-09-13T18:19:11;4.90;;;2.90;;
20008;SDS011;10165;42.662;23.260;2022-09-13T18:21:39;2.67;;;2.47;;
20008;SDS011;10165;42.662;23.260;2022-09-13T18:24:06;3.00;;;2.67;;
20008;SDS011;10165;42.662;23.260;2022-09-13T18:26:35;6.00;;;2.83;;
20008;SDS011;10165;42.662;23.260;2022-09-13T18:29:06;4.13;;;2.50;;
20008;SDS011;10165;42.662;23.260;2022-09-13T18:31:36;4.57;;;2.47;;
20008;SDS011;10165;42.662;23.260;2022-09-13T18:34:06;2.43;;;2.23;;
20008;SDS011;10165;42.662;23.260;2022-09-13T18:36:37;6.93;;;2.80;;
20008;SDS011;10165;42.662;23.260;2022-09-13T18:39:05;3.17;;;2.80;;
20008;SDS011;10165;42.662;23.260;2022-09-13T18:41:37;3.33;;;2.50;;
20008;SDS011;10165;42.662;23.260;2022-09-13T18:44:12;3.00;;;2.70;;
20008;SDS011;10165;42.662;23.260;2022-09-13T18:46:41;5.63;;;2.70;;
20008;SDS011;10165;42.662;23.260;2022-09-13T18:49:08;3.20;;;2.67;;
20008;SDS011;10165;42.662;23.260;2022-09-13T18:51:40;2.47;;;2.27;;